createdAt,value
2018-01-10T12:18:43.112Z,45.27
2018-01-10T12:19:13.036Z,45.47
2018-01-10T12:20:10.061Z,45.29
2018-01-10T12:20:40.056Z,44.70
2018-01-10T12:21:38.083Z,43.82
2018-01-10T12:22:08.078Z,43.51
2018-01-10T12:23:05.177Z,42.24
2018-01-10T12:23:35.174Z,41.53
2018-01-10T12:24:32.208Z,41.35
2018-01-10T12:25:02.193Z,40.97
2018-01-10T12:26:00.225Z,40.79
2018-01-10T12:26:30.244Z,40.79
2018-01-10T12:27:27.227Z,41.01
2018-01-10T12:27:57.221Z,41.11
2018-01-10T12:28:54.252Z,41.23
2018-01-10T12:29:24.280Z,41.33
2018-01-10T12:30:21.287Z,41.05
2018-01-10T12:30:51.260Z,41.05
2018-01-10T12:31:21.261Z,41.05
2018-01-10T12:31:51.264Z,41.07
2018-01-10T12:32:21.264Z,41.17
2018-01-10T12:32:51.266Z,41.27
2018-01-10T12:33:21.276Z,41.29
2018-01-10T12:33:51.274Z,41.29
2018-01-10T12:34:21.274Z,41.19
2018-01-10T12:34:51.279Z,41.09
2018-01-10T12:35:21.272Z,41.01
2018-01-10T12:35:51.291Z,41.11
2018-01-10T12:36:21.274Z,41.11
2018-01-10T12:36:51.277Z,41.13
2018-01-10T12:37:21.277Z,41.23
2018-01-10T12:37:51.284Z,41.23
2018-01-10T12:38:21.278Z,41.23
2018-01-10T12:38:51.340Z,41.35
2018-01-10T12:39:21.288Z,41.35
2018-01-10T12:39:51.290Z,41.45
2018-01-10T12:40:21.291Z,41.57
2018-01-10T12:40:51.293Z,41.67
2018-01-10T12:41:21.294Z,41.77
2018-01-10T12:41:51.296Z,41.79
2018-01-10T12:42:21.298Z,41.89
2018-01-10T12:42:51.291Z,41.99
2018-01-10T12:43:21.337Z,42.01
2018-01-10T12:43:51.305Z,42.01
2018-01-10T12:44:21.293Z,42.11
2018-01-10T12:44:51.294Z,42.13
2018-01-10T12:45:21.297Z,42.13
2018-01-10T12:45:51.300Z,42.13
2018-01-10T12:46:21.296Z,42.13
2018-01-10T12:46:51.305Z,42.25
2018-01-10T12:47:21.304Z,42.25
2018-01-10T12:47:51.300Z,42.35
2018-01-10T12:48:21.307Z,42.46
2018-01-10T12:48:51.301Z,42.46
2018-01-10T12:49:21.341Z,42.58
2018-01-10T12:49:51.307Z,42.68
2018-01-10T12:50:21.311Z,42.68
2018-01-10T12:50:51.303Z,42.78
2018-01-10T12:51:21.305Z,42.90
2018-01-10T12:51:51.313Z,43.00
2018-01-10T12:52:21.313Z,43.00
2018-01-10T12:52:51.319Z,43.10
2018-01-10T12:53:21.306Z,43.23
2018-01-10T12:53:51.314Z,43.32
2018-01-10T12:54:21.308Z,43.32
2018-01-10T12:54:51.316Z,43.44
2018-01-10T12:55:21.315Z,43.55
2018-01-10T12:55:51.315Z,43.65
2018-01-10T12:56:21.317Z,43.65
2018-01-10T12:56:51.320Z,43.77
2018-01-10T12:57:21.320Z,43.87
2018-01-10T12:57:51.316Z,43.97
2018-01-10T12:58:21.314Z,44.07
2018-01-10T12:58:51.323Z,44.17
2018-01-10T12:59:21.318Z,44.29
2018-01-10T12:59:51.315Z,44.29
2018-01-10T13:00:21.322Z,44.40
2018-01-10T13:00:51.317Z,44.49
2018-01-10T13:01:21.320Z,44.70
2018-01-10T13:01:51.314Z,44.80
2018-01-10T13:02:21.318Z,44.80
2018-01-10T13:02:51.325Z,44.92
2018-01-10T13:03:21.320Z,45.03
2018-01-10T13:03:51.316Z,45.03
2018-01-10T13:04:21.331Z,45.03
2018-01-10T13:04:51.324Z,45.03
2018-01-10T13:05:21.317Z,45.12
2018-01-10T13:05:51.315Z,45.12
2018-01-10T13:06:21.319Z,45.12
2018-01-10T13:06:51.326Z,45.23
2018-01-10T13:07:21.321Z,45.35
2018-01-10T13:07:51.360Z,45.45
2018-01-10T13:08:21.327Z,45.45
2018-01-10T13:08:51.317Z,45.55
2018-01-10T13:09:21.324Z,45.65
2018-01-10T13:09:51.319Z,45.75
2018-01-10T13:10:21.326Z,45.86
2018-01-10T13:10:51.350Z,45.96
2018-01-10T13:11:21.318Z,45.96
2018-01-10T13:11:51.318Z,46.08
2018-01-10T13:12:21.328Z,46.08
2018-01-10T13:12:51.324Z,46.18
2018-01-10T13:13:21.318Z,46.28
2018-01-10T13:13:51.338Z,46.28
2018-01-10T13:14:21.331Z,46.28
2018-01-10T13:14:51.325Z,46.38
2018-01-10T13:15:21.325Z,46.38
2018-01-10T13:15:51.328Z,46.48
2018-01-10T13:16:21.321Z,46.51
2018-01-10T13:16:51.326Z,46.51
2018-01-10T13:17:21.321Z,46.51
2018-01-10T13:17:51.329Z,46.61
2018-01-10T13:18:21.322Z,46.61
2018-01-10T13:18:51.347Z,46.71
2018-01-10T13:19:21.332Z,46.91
2018-01-10T13:19:51.355Z,47.02
2018-01-10T13:20:21.328Z,47.11
2018-01-10T13:20:51.327Z,47.24
2018-01-10T13:21:21.388Z,47.24
2018-01-10T13:21:51.336Z,47.34
2018-01-10T13:22:21.328Z,47.34
2018-01-10T13:22:51.328Z,47.44
2018-01-10T13:23:21.320Z,47.44
2018-01-10T13:23:51.329Z,47.56
2018-01-10T13:24:21.320Z,47.67
2018-01-10T13:24:51.331Z,47.67
2018-01-10T13:25:21.325Z,47.77
2018-01-10T13:25:51.352Z,47.77
2018-01-10T13:26:21.354Z,47.87
2018-01-10T13:27:57.142Z,47.87
2018-01-10T13:29:33.293Z,47.99
2018-01-10T13:30:03.271Z,47.99
2018-01-10T13:31:39.923Z,48.10
2018-01-10T13:32:09.919Z,48.10
2018-01-10T13:32:39.921Z,48.19
2018-01-10T13:33:09.987Z,48.19
2018-01-10T13:33:39.974Z,48.19
2018-01-10T13:34:09.917Z,48.30
2018-01-10T13:34:39.920Z,48.30
2018-01-10T13:35:09.913Z,48.42
2018-01-10T13:35:39.934Z,48.42
2018-01-10T13:36:09.919Z,48.52
2018-01-10T13:36:39.990Z,48.63
2018-01-10T13:37:09.919Z,48.83
2018-01-10T13:37:39.961Z,48.83
2018-01-10T13:38:09.912Z,48.93
2018-01-10T13:38:39.957Z,48.93
2018-01-10T13:39:10.019Z,48.93
2018-01-10T13:39:39.918Z,49.13
2018-01-10T13:40:09.940Z,49.13
2018-01-10T13:40:39.913Z,49.23
2018-01-10T13:41:09.911Z,49.33
2018-01-10T13:41:39.918Z,49.33
2018-01-10T13:42:09.922Z,49.33
2018-01-10T13:42:39.913Z,49.33
2018-01-10T13:43:09.916Z,49.33
2018-01-10T13:43:39.967Z,49.36
2018-01-10T13:44:09.909Z,49.36
2018-01-10T13:44:39.910Z,49.46
2018-01-10T13:45:09.923Z,49.56
2018-01-10T13:45:39.917Z,49.66
2018-01-10T13:46:09.929Z,49.66
2018-01-10T13:46:39.908Z,49.66
2018-01-10T13:47:09.912Z,49.66
2018-01-10T13:47:39.909Z,49.66
2018-01-10T13:48:09.922Z,49.76
2018-01-10T13:48:39.907Z,49.76
2018-01-10T13:49:09.906Z,49.76
2018-01-10T13:49:39.914Z,49.87
2018-01-10T13:50:09.907Z,49.76
2018-01-10T13:50:39.941Z,49.87
2018-01-10T13:51:09.910Z,49.87
2018-01-10T13:51:39.906Z,49.97
2018-01-10T13:52:09.907Z,49.97
2018-01-10T13:52:39.912Z,49.97
2018-01-10T13:53:09.908Z,50.09
2018-01-10T13:53:39.905Z,50.09
2018-01-10T13:54:09.903Z,50.09
2018-01-10T13:54:39.928Z,50.09
2018-01-10T13:55:09.904Z,50.20
2018-01-10T13:55:39.909Z,50.20
2018-01-10T13:56:09.910Z,50.29
2018-01-10T13:56:39.910Z,50.29
2018-01-10T13:57:09.903Z,50.40
2018-01-10T13:57:39.909Z,50.40
2018-01-10T13:58:09.903Z,50.50
2018-01-10T13:58:39.899Z,50.50
2018-01-10T13:59:09.977Z,50.50
2018-01-10T13:59:39.903Z,50.60
2018-01-10T14:00:09.900Z,50.50
2018-01-10T14:00:39.903Z,50.60
2018-01-10T14:01:09.901Z,50.60
2018-01-10T14:01:39.899Z,50.70
2018-01-10T14:02:09.904Z,50.70
2018-01-10T14:02:40.025Z,50.81
2018-01-10T14:03:09.900Z,50.81
2018-01-10T14:03:39.921Z,50.81
2018-01-10T14:04:09.900Z,50.83
2018-01-10T14:04:39.898Z,50.83
2018-01-10T14:05:09.902Z,50.83
2018-01-10T14:05:39.910Z,50.93
2018-01-10T14:06:09.901Z,50.93
2018-01-10T14:06:39.917Z,50.93
2018-01-10T14:07:09.895Z,50.93
2018-01-10T14:07:39.918Z,51.03
2018-01-10T14:08:09.894Z,50.93
2018-01-10T14:08:39.894Z,50.93
2018-01-10T14:09:09.894Z,50.93
2018-01-10T14:09:39.899Z,50.93
2018-01-10T14:10:10.905Z,51.03
2018-01-10T14:10:39.898Z,51.03
2018-01-10T14:11:09.905Z,51.14
2018-01-10T14:11:39.896Z,51.23
2018-01-10T14:12:09.893Z,51.34
2018-01-10T14:12:39.903Z,51.34
2018-01-10T14:13:09.897Z,51.46
2018-01-10T14:13:39.889Z,51.56
2018-01-10T14:14:09.947Z,51.77
2018-01-10T14:14:39.907Z,51.77
2018-01-10T14:16:16.015Z,51.87
2018-01-10T14:16:45.787Z,51.87
2018-01-10T14:17:42.897Z,51.97
2018-01-10T14:18:12.799Z,51.97
2018-01-10T14:19:09.818Z,52.00
2018-01-10T14:19:39.816Z,52.20
2018-01-10T14:20:36.837Z,52.20
2018-01-10T14:21:06.827Z,52.20
2018-01-10T14:22:03.882Z,52.30
2018-01-10T14:22:33.872Z,52.30
2018-01-10T14:23:34.867Z,52.40
2018-01-10T14:24:04.861Z,52.40
2018-01-10T14:24:34.869Z,52.40
2018-01-10T14:25:04.861Z,52.53
2018-01-10T14:25:34.861Z,52.63
2018-01-10T14:26:05.050Z,52.83
2018-01-10T14:26:34.873Z,52.83
2018-01-10T14:27:04.861Z,52.83
2018-01-10T14:27:34.856Z,52.83
2018-01-10T14:28:04.863Z,52.83
2018-01-10T14:28:34.863Z,52.94
2018-01-10T14:29:04.886Z,52.94
2018-01-10T14:29:34.856Z,52.94
2018-01-10T14:30:04.877Z,53.04
2018-01-10T14:30:34.857Z,53.04
2018-01-10T14:31:04.855Z,53.16
2018-01-10T14:31:34.860Z,53.16
2018-01-10T14:32:04.852Z,53.27
2018-01-10T14:32:34.915Z,53.27
2018-01-10T14:33:04.851Z,53.16
2018-01-10T14:33:34.859Z,53.27
2018-01-10T14:34:04.857Z,53.27
2018-01-10T14:34:34.855Z,53.27
2018-01-10T14:35:04.856Z,53.37
2018-01-10T14:35:34.887Z,53.47
2018-01-10T14:36:04.846Z,53.57
2018-01-10T14:36:34.847Z,53.57
2018-01-10T14:37:04.852Z,53.67
2018-01-10T14:37:34.850Z,53.78
2018-01-10T14:38:04.854Z,53.78
2018-01-10T14:38:34.924Z,53.67
2018-01-10T14:39:04.843Z,53.70
2018-01-10T14:39:34.844Z,53.80
2018-01-10T14:40:04.855Z,53.80
2018-01-10T14:40:34.841Z,53.80
2018-01-10T14:41:04.845Z,53.80
2018-01-10T14:41:34.881Z,53.90
2018-01-10T14:42:04.846Z,54.00
2018-01-10T14:42:34.848Z,54.00
2018-01-10T14:43:04.838Z,54.11
2018-01-10T14:43:34.842Z,54.21
2018-01-10T14:44:04.842Z,54.21
2018-01-10T14:44:34.833Z,54.31
2018-01-10T14:45:04.835Z,54.41
2018-01-10T14:45:34.839Z,54.41
2018-01-10T14:46:04.907Z,54.44
2018-01-10T14:46:34.836Z,54.54
2018-01-10T14:47:04.830Z,54.64
2018-01-10T14:47:34.828Z,54.74
2018-01-10T14:48:04.838Z,54.74
2018-01-10T14:48:34.838Z,54.74
2018-01-10T14:49:04.908Z,54.85
2018-01-10T14:49:34.827Z,54.85
2018-01-10T14:50:04.835Z,54.85
2018-01-10T14:50:34.825Z,54.94
2018-01-10T14:51:04.834Z,54.85
2018-01-10T14:51:34.831Z,54.85
2018-01-10T14:52:04.829Z,54.85
2018-01-10T14:52:34.821Z,54.85
2018-01-10T14:53:04.851Z,54.94
2018-01-10T14:53:34.834Z,54.97
2018-01-10T14:54:04.821Z,54.97
2018-01-10T14:54:34.826Z,54.97
2018-01-10T14:55:04.851Z,54.97
2018-01-10T14:55:34.815Z,55.07
2018-01-10T14:56:04.823Z,54.97
2018-01-10T14:56:34.814Z,54.97
2018-01-10T14:57:04.810Z,54.97
2018-01-10T14:57:34.819Z,54.97
2018-01-10T14:58:04.818Z,55.07
2018-01-10T14:58:34.825Z,55.07
2018-01-10T14:59:04.862Z,55.07
2018-01-10T14:59:34.813Z,55.18
2018-01-10T15:00:04.842Z,55.28
2018-01-10T15:00:34.806Z,55.28
2018-01-10T15:01:04.820Z,55.28
2018-01-10T15:01:34.808Z,55.28
2018-01-10T15:02:04.847Z,55.28
2018-01-10T15:02:34.811Z,55.38
2018-01-10T15:03:04.801Z,55.48
2018-01-10T15:03:34.805Z,55.58
2018-01-10T15:04:04.820Z,55.61
2018-01-10T15:04:34.810Z,55.61
2018-01-10T15:05:04.801Z,55.61
2018-01-10T15:05:34.860Z,55.71
2018-01-10T15:06:04.864Z,55.71
2018-01-10T15:06:34.798Z,55.82
2018-01-10T15:07:04.800Z,55.91
2018-01-10T15:07:34.805Z,56.02
2018-01-10T15:08:04.794Z,56.02
2018-01-10T15:08:34.792Z,56.02
2018-01-10T15:09:04.807Z,56.02
2018-01-10T15:09:34.804Z,56.12
2018-01-10T15:10:04.809Z,56.12
2018-01-10T15:10:34.788Z,56.23
2018-01-10T15:11:04.819Z,56.12
2018-01-10T15:11:34.784Z,56.12
2018-01-10T15:12:04.782Z,56.23
2018-01-10T15:12:34.789Z,56.25
2018-01-10T15:13:04.795Z,56.25
2018-01-10T15:13:34.937Z,56.35
2018-01-10T15:14:04.789Z,56.35
2018-01-10T15:14:34.802Z,56.35
2018-01-10T15:15:04.794Z,56.35
2018-01-10T15:15:34.787Z,56.35
2018-01-10T15:16:04.802Z,56.45
2018-01-10T15:16:34.775Z,56.45
2018-01-10T15:17:04.779Z,56.45
2018-01-10T15:17:34.772Z,56.45
2018-01-10T15:18:04.845Z,56.45
2018-01-10T15:18:34.779Z,56.56
2018-01-10T15:19:04.778Z,56.56
2018-01-10T15:19:34.767Z,56.66
2018-01-10T15:20:04.775Z,56.66
2018-01-10T15:20:34.771Z,56.76
2018-01-10T15:21:04.772Z,56.76
2018-01-10T15:21:34.765Z,56.76
2018-01-10T15:22:04.762Z,56.76
2018-01-10T15:22:34.763Z,56.79
2018-01-10T15:23:04.767Z,56.79
2018-01-10T15:23:34.760Z,56.79
2018-01-10T15:24:04.757Z,56.89
2018-01-10T15:24:34.762Z,56.89
2018-01-10T15:25:04.774Z,56.89
2018-01-10T15:25:34.766Z,56.89
2018-01-10T15:26:04.760Z,56.99
2018-01-10T15:26:34.759Z,56.99
2018-01-10T15:27:04.771Z,56.99
2018-01-10T15:27:34.823Z,57.09
2018-01-10T15:28:04.750Z,57.09
2018-01-10T15:28:34.785Z,57.09
2018-01-10T15:29:04.752Z,57.09
2018-01-10T15:29:34.751Z,57.09
2018-01-10T15:30:04.746Z,57.09
2018-01-10T15:30:34.750Z,57.09
2018-01-10T15:31:04.742Z,57.20
2018-01-10T15:31:34.741Z,57.29
2018-01-10T15:32:04.749Z,57.29
2018-01-10T15:32:34.745Z,57.29
2018-01-10T15:33:04.780Z,57.40
2018-01-10T15:33:34.783Z,57.40
2018-01-10T15:34:04.734Z,57.40
2018-01-10T15:34:34.743Z,57.50
2018-01-10T15:35:04.739Z,57.50
2018-01-10T15:35:34.800Z,57.53
2018-01-10T15:36:04.731Z,57.43
2018-01-10T15:36:34.730Z,57.43
2018-01-10T15:37:04.729Z,57.43
2018-01-10T15:37:34.726Z,57.53
2018-01-10T15:38:04.734Z,57.53
2018-01-10T15:38:34.725Z,57.53
2018-01-10T15:39:04.724Z,57.53
2018-01-10T15:39:34.723Z,57.53
2018-01-10T15:40:04.720Z,57.53
2018-01-10T15:40:34.719Z,57.53
2018-01-10T15:41:04.764Z,57.53
2018-01-10T15:41:34.723Z,57.53
2018-01-10T15:42:04.728Z,57.53
2018-01-10T15:42:34.714Z,57.63
2018-01-10T15:43:04.719Z,57.63
2018-01-10T15:43:34.714Z,57.63
2018-01-10T15:44:04.719Z,57.63
2018-01-10T15:44:34.710Z,57.73
2018-01-10T15:45:04.716Z,57.73
2018-01-10T15:45:34.717Z,57.73
2018-01-10T15:46:04.707Z,57.84
2018-01-10T15:46:34.706Z,57.93
2018-01-10T15:47:04.703Z,58.04
2018-01-10T15:47:34.709Z,58.04
2018-01-10T15:48:04.710Z,58.04
2018-01-10T15:48:34.700Z,58.04
2018-01-10T15:49:04.774Z,58.04
2018-01-10T15:49:34.700Z,58.04
2018-01-10T15:50:04.708Z,58.04
2018-01-10T15:50:34.703Z,58.04
2018-01-10T15:51:04.701Z,58.07
2018-01-10T15:51:34.696Z,58.07
2018-01-10T15:52:04.691Z,58.07
2018-01-10T15:52:34.692Z,58.07
2018-01-10T15:54:10.781Z,57.97
2018-01-10T15:55:46.097Z,57.97
2018-01-10T15:56:16.095Z,57.97
2018-01-10T15:57:14.106Z,58.07
2018-01-10T15:57:44.145Z,58.07
2018-01-10T15:58:42.133Z,58.07
2018-01-10T15:59:12.127Z,58.17
2018-01-10T16:00:10.457Z,58.17
2018-01-10T16:00:40.159Z,58.17
2018-01-10T16:01:37.960Z,58.17
2018-01-10T16:02:07.174Z,58.17
2018-01-10T16:02:37.174Z,58.17
2018-01-10T16:03:07.166Z,58.17
2018-01-10T16:03:37.193Z,58.17
2018-01-10T16:04:07.165Z,58.17
2018-01-10T16:04:37.236Z,58.17
2018-01-10T16:05:07.166Z,58.17
2018-01-10T16:05:37.158Z,58.17
2018-01-10T16:06:07.158Z,58.17
2018-01-10T16:06:37.163Z,58.27
2018-01-10T16:07:07.156Z,58.37
2018-01-10T16:07:37.159Z,58.48
2018-01-10T16:08:07.160Z,58.58
2018-01-10T16:08:37.150Z,58.58
2018-01-10T16:09:07.149Z,58.61
2018-01-10T16:09:37.156Z,58.61
2018-01-10T16:10:07.151Z,58.61
2018-01-10T16:10:37.145Z,58.61
2018-01-10T16:11:07.151Z,58.61
2018-01-10T16:11:37.143Z,58.50
2018-01-10T16:12:07.179Z,58.50
2018-01-10T16:12:37.142Z,58.50
2018-01-10T16:13:07.139Z,58.61
2018-01-10T16:13:37.144Z,58.61
2018-01-10T16:14:07.142Z,58.61
2018-01-10T16:14:37.154Z,58.61
2018-01-10T16:15:07.136Z,58.61
2018-01-10T16:15:37.140Z,58.61
2018-01-10T16:16:07.173Z,58.61
2018-01-10T16:16:37.132Z,58.61
2018-01-10T16:17:07.134Z,58.61
2018-01-10T16:17:37.127Z,58.61
2018-01-10T16:18:07.130Z,58.50
2018-01-10T16:18:37.136Z,58.61
2018-01-10T16:19:07.125Z,58.61
2018-01-10T16:19:37.131Z,58.61
2018-01-10T16:20:07.125Z,58.61
2018-01-10T16:20:37.130Z,58.61
2018-01-10T16:21:07.156Z,58.61
2018-01-10T16:21:37.119Z,58.61
2018-01-10T16:22:07.128Z,58.61
2018-01-10T16:22:37.117Z,58.70
2018-01-10T16:23:07.120Z,58.70
2018-01-10T16:23:37.117Z,58.70
2018-01-10T16:24:07.114Z,58.70
2018-01-10T16:24:37.112Z,58.70
2018-01-10T16:25:07.111Z,58.70
2018-01-10T16:25:37.116Z,58.70
2018-01-10T16:26:07.106Z,58.81
2018-01-10T16:26:37.108Z,58.81
2018-01-10T16:27:07.106Z,58.91
2018-01-10T16:27:37.103Z,58.91
2018-01-10T16:28:07.106Z,58.81
2018-01-10T16:28:37.210Z,58.81
2018-01-10T16:29:07.113Z,58.91
2018-01-10T16:29:37.110Z,58.91
2018-01-10T16:30:07.127Z,58.91
2018-01-10T16:30:37.108Z,58.91
2018-01-10T16:31:07.096Z,59.01
2018-01-10T16:31:37.095Z,59.04
2018-01-10T16:32:07.100Z,59.04
2018-01-10T16:32:37.097Z,59.14
2018-01-10T16:33:07.094Z,59.14
2018-01-10T16:33:37.096Z,59.25
2018-01-10T16:34:07.117Z,59.25
2018-01-10T16:34:37.087Z,59.35
2018-01-10T16:35:07.096Z,59.35
2018-01-10T16:35:37.086Z,59.35
2018-01-10T16:36:07.084Z,59.35
2018-01-10T16:36:37.186Z,59.45
2018-01-10T16:37:07.080Z,59.45
2018-01-10T16:37:37.076Z,59.45
2018-01-10T16:38:07.083Z,59.45
2018-01-10T16:38:37.075Z,59.45
2018-01-10T16:39:07.144Z,59.45
2018-01-10T16:39:37.078Z,59.35
2018-01-10T16:40:07.082Z,59.45
2018-01-10T16:40:37.069Z,59.45
2018-01-10T16:41:07.067Z,59.58
2018-01-10T16:41:37.067Z,59.58
2018-01-10T16:42:07.073Z,59.58
2018-01-10T16:42:37.078Z,59.68
2018-01-10T16:43:07.074Z,59.68
2018-01-10T16:43:37.060Z,59.78
2018-01-10T16:44:07.097Z,59.68
2018-01-10T16:44:37.059Z,59.78
2018-01-10T16:45:07.117Z,59.78
2018-01-10T16:45:37.058Z,59.78
2018-01-10T16:46:07.063Z,59.78
2018-01-10T16:46:37.059Z,59.78
2018-01-10T16:47:07.058Z,59.92
2018-01-10T16:47:37.058Z,59.92
2018-01-10T16:48:07.047Z,59.92
2018-01-10T16:48:37.054Z,60.02
2018-01-10T16:49:07.044Z,60.12
2018-01-10T16:49:37.048Z,60.22
2018-01-10T16:50:07.042Z,60.22
2018-01-10T16:50:37.066Z,60.22
2018-01-10T16:51:07.072Z,60.22
2018-01-10T16:51:37.045Z,60.33
2018-01-10T16:52:07.039Z,60.42
2018-01-10T16:52:37.086Z,60.42
2018-01-10T16:53:07.035Z,60.56
2018-01-10T16:53:37.039Z,60.56
2018-01-10T16:54:07.040Z,60.66
2018-01-10T16:54:37.030Z,60.66
2018-01-10T16:55:07.036Z,60.66
2018-01-10T16:55:37.031Z,60.76
2018-01-10T16:56:07.032Z,60.86
2018-01-10T16:56:37.031Z,60.97
2018-01-10T16:57:07.021Z,61.07
2018-01-10T16:57:37.020Z,61.18
2018-01-10T16:58:07.027Z,61.30
2018-01-10T16:58:37.025Z,61.30
2018-01-10T16:59:07.027Z,61.41
2018-01-10T16:59:37.013Z,61.51
2018-01-10T17:00:07.021Z,61.51
2018-01-10T17:00:37.010Z,61.61
2018-01-10T17:01:07.009Z,61.61
2018-01-10T17:01:37.008Z,61.71
2018-01-10T17:02:07.019Z,61.71
2018-01-10T17:02:37.067Z,61.85
2018-01-10T17:03:07.009Z,61.85
2018-01-10T17:03:37.000Z,61.95
2018-01-10T17:04:07.001Z,62.05
2018-01-10T17:04:36.998Z,62.05
2018-01-10T17:05:07.004Z,62.15
2018-01-10T17:05:37.000Z,62.26
2018-01-10T17:06:06.992Z,62.26
2018-01-10T17:06:36.991Z,62.26
2018-01-10T17:07:06.996Z,62.39
2018-01-10T17:07:36.987Z,62.39
2018-01-10T17:08:06.999Z,62.39
2018-01-10T17:08:36.990Z,62.49
2018-01-10T17:09:07.001Z,62.59
2018-01-10T17:09:36.979Z,62.70
2018-01-10T17:10:06.980Z,62.70
2018-01-10T17:10:36.977Z,62.70
2018-01-10T17:11:07.046Z,62.80
2018-01-10T17:11:36.972Z,62.80
2018-01-10T17:12:06.974Z,62.93
2018-01-10T17:12:37.033Z,63.03
2018-01-10T17:13:06.970Z,63.13
2018-01-10T17:13:36.965Z,63.24
2018-01-10T17:14:06.966Z,63.24
2018-01-10T17:14:36.961Z,63.24
2018-01-10T17:15:06.994Z,63.24
2018-01-10T17:15:36.960Z,63.34
2018-01-10T17:16:06.957Z,63.24
2018-01-10T17:16:36.952Z,63.24
2018-01-10T17:17:06.954Z,63.37
2018-01-10T17:17:36.958Z,63.37
2018-01-10T17:18:06.947Z,63.47
2018-01-10T17:18:36.957Z,63.47
2018-01-10T17:19:06.951Z,63.47
2018-01-10T17:19:37.020Z,63.57
2018-01-10T17:20:06.986Z,63.57
2018-01-10T17:20:36.944Z,63.68
2018-01-10T17:21:06.937Z,63.78
2018-01-10T17:21:36.936Z,63.89
2018-01-10T17:22:06.937Z,63.89
2018-01-10T17:22:36.938Z,63.89
2018-01-10T17:23:06.928Z,64.01
2018-01-10T17:23:36.928Z,64.01
2018-01-10T17:24:06.930Z,64.01
2018-01-10T17:24:36.926Z,64.01
2018-01-10T17:25:06.925Z,64.12
2018-01-10T17:25:36.925Z,64.22
2018-01-10T17:26:06.921Z,64.22
2018-01-10T17:26:36.928Z,64.22
2018-01-10T17:27:06.922Z,64.22
2018-01-10T17:27:36.913Z,64.32
2018-01-10T17:28:06.912Z,64.32
2018-01-10T17:28:36.916Z,64.43
2018-01-10T17:29:06.946Z,64.46
2018-01-10T17:29:36.909Z,64.46
2018-01-10T17:30:06.902Z,64.46
2018-01-10T17:30:36.906Z,64.56
2018-01-10T17:31:06.900Z,64.56
2018-01-10T17:31:36.907Z,64.66
2018-01-10T17:32:06.904Z,64.66
2018-01-10T17:32:36.898Z,64.66
2018-01-10T17:33:06.898Z,64.66
2018-01-10T17:33:36.890Z,64.66
2018-01-10T17:34:06.891Z,64.76
2018-01-10T17:34:36.893Z,64.76
2018-01-10T17:35:06.882Z,64.87
2018-01-10T17:35:36.884Z,64.87
2018-01-10T17:36:06.881Z,64.87
2018-01-10T17:36:36.875Z,64.97
2018-01-10T17:37:06.878Z,65.00
2018-01-10T17:37:36.921Z,65.00
2018-01-10T17:38:06.871Z,65.11
2018-01-10T17:38:36.870Z,65.11
2018-01-10T17:39:06.871Z,65.20
2018-01-10T17:39:36.869Z,65.20
2018-01-10T17:40:06.863Z,65.20
2018-01-10T17:40:36.911Z,65.31
2018-01-10T17:41:06.859Z,65.31
2018-01-10T17:41:36.856Z,65.31
2018-01-10T17:42:06.863Z,65.41
2018-01-10T17:42:36.859Z,65.41
2018-01-10T17:43:06.855Z,65.41
2018-01-10T17:43:36.961Z,65.41
2018-01-10T17:44:06.856Z,65.41
2018-01-10T17:44:36.846Z,65.41
2018-01-10T17:45:06.844Z,65.44
2018-01-10T17:45:36.846Z,65.55
2018-01-10T17:46:06.846Z,65.55
2018-01-10T17:46:36.845Z,65.55
2018-01-10T17:47:06.837Z,65.55
2018-01-10T17:47:36.831Z,65.55
2018-01-10T17:48:06.830Z,65.44
2018-01-10T17:48:36.828Z,65.55
2018-01-10T17:49:06.824Z,65.55
2018-01-10T17:49:36.823Z,65.55
2018-01-10T17:50:06.822Z,65.44
2018-01-10T17:50:36.826Z,65.44
2018-01-10T17:51:06.822Z,65.44
2018-01-10T17:51:36.816Z,65.44
2018-01-10T17:52:06.820Z,65.44
2018-01-10T17:52:36.820Z,65.55
2018-01-10T17:53:06.811Z,65.55
2018-01-10T17:53:36.806Z,65.55
2018-01-10T17:54:06.804Z,65.58
2018-01-10T17:54:36.811Z,65.55
2018-01-10T17:55:06.808Z,65.58
2018-01-10T17:55:36.808Z,65.58
2018-01-10T17:56:06.804Z,65.58
2018-01-10T17:56:36.795Z,65.58
2018-01-10T17:57:06.799Z,65.58
2018-01-10T17:57:36.789Z,65.58
2018-01-10T17:58:06.788Z,65.58
2018-01-10T17:58:36.788Z,65.58
2018-01-10T17:59:06.786Z,65.58
2018-01-10T17:59:36.781Z,65.68
2018-01-10T18:00:06.793Z,65.68
2018-01-10T18:00:36.778Z,65.68
2018-01-10T18:01:06.779Z,65.68
2018-01-10T18:01:36.773Z,65.68
2018-01-10T18:02:06.777Z,65.68
2018-01-10T18:02:36.775Z,65.68
2018-01-10T18:03:06.774Z,65.68
2018-01-10T18:03:36.769Z,65.78
2018-01-10T18:04:06.764Z,65.78
2018-01-10T18:04:36.769Z,65.78
2018-01-10T18:05:06.765Z,65.78
2018-01-10T18:05:36.756Z,65.78
2018-01-10T18:06:06.752Z,65.81
2018-01-10T18:06:36.752Z,65.92
2018-01-10T18:07:06.756Z,65.92
2018-01-10T18:07:36.751Z,65.92
2018-01-10T18:08:06.746Z,65.92
2018-01-10T18:08:36.751Z,66.02
2018-01-10T18:09:06.744Z,66.02
2018-01-10T18:09:36.738Z,66.02
2018-01-10T18:10:06.737Z,66.02
2018-01-10T18:10:36.733Z,66.02
2018-01-10T18:11:06.738Z,66.12
2018-01-10T18:11:36.735Z,66.12
2018-01-10T18:12:06.802Z,66.12
2018-01-10T18:12:36.732Z,66.12
2018-01-10T18:13:06.723Z,66.22
2018-01-10T18:13:36.740Z,66.22
2018-01-10T18:14:06.724Z,66.25
2018-01-10T18:14:36.725Z,66.25
2018-01-10T18:15:06.716Z,66.36
2018-01-10T18:16:42.453Z,66.25
2018-01-10T18:18:18.095Z,66.25
2018-01-10T18:18:48.182Z,66.36
2018-01-10T18:19:45.108Z,66.36
2018-01-10T18:20:15.099Z,66.46
2018-01-10T18:21:12.121Z,66.56
2018-01-10T18:21:42.135Z,66.56
2018-01-10T18:22:39.151Z,66.67
2018-01-10T18:23:09.123Z,66.70
2018-01-10T18:24:06.143Z,66.80
2018-01-10T18:24:36.135Z,66.91
2018-01-10T18:25:33.160Z,66.91
2018-01-10T18:26:03.145Z,67.00
2018-01-10T18:27:00.170Z,67.21
2018-01-10T18:27:30.165Z,67.32
2018-01-10T18:28:00.157Z,67.32
2018-01-10T18:28:30.155Z,67.42
2018-01-10T18:29:00.152Z,67.42
2018-01-10T18:29:30.186Z,67.42
2018-01-10T18:30:00.159Z,67.52
2018-01-10T18:30:30.171Z,67.52
2018-01-10T18:31:00.173Z,67.52
2018-01-10T18:31:30.149Z,67.63
2018-01-10T18:32:00.136Z,67.73
2018-01-10T18:32:30.136Z,67.73
2018-01-10T18:33:00.135Z,67.73
2018-01-10T18:33:30.143Z,67.83
2018-01-10T18:34:00.134Z,67.83
2018-01-10T18:34:30.143Z,67.83
2018-01-10T18:35:00.131Z,67.86
2018-01-10T18:35:30.130Z,67.86
2018-01-10T18:36:00.118Z,67.97
2018-01-10T18:36:30.118Z,67.97
2018-01-10T18:37:00.114Z,67.97
2018-01-10T18:37:30.113Z,67.97
2018-01-10T18:38:00.112Z,68.07
2018-01-10T18:38:30.166Z,68.07
2018-01-10T18:39:00.105Z,68.07
2018-01-10T18:39:30.111Z,68.17
2018-01-10T18:40:00.114Z,68.17
2018-01-10T18:40:30.099Z,68.27
2018-01-10T18:41:00.103Z,68.27
2018-01-10T18:41:30.099Z,68.27
2018-01-10T18:42:00.104Z,68.27
2018-01-10T18:42:30.100Z,68.38
2018-01-10T18:43:00.095Z,68.48
2018-01-10T18:43:30.090Z,68.48
2018-01-10T18:44:00.090Z,68.59
2018-01-10T18:44:30.203Z,68.59
2018-01-10T18:45:00.135Z,68.69
2018-01-10T18:45:30.082Z,68.69
2018-01-10T18:46:00.073Z,68.69
2018-01-10T18:46:30.070Z,68.72
2018-01-10T18:47:00.070Z,68.72
2018-01-10T18:47:30.071Z,68.82
2018-01-10T18:48:00.126Z,68.82
2018-01-10T18:48:30.066Z,68.82
2018-01-10T18:49:00.060Z,68.82
2018-01-10T18:49:30.081Z,68.93
2018-01-10T18:50:00.059Z,68.93
2018-01-10T18:50:30.057Z,68.93
2018-01-10T18:51:00.058Z,69.03
2018-01-10T18:51:30.046Z,69.03
2018-01-10T18:52:00.054Z,69.03
2018-01-10T18:52:30.043Z,69.03
2018-01-10T18:53:00.046Z,69.03
2018-01-10T18:53:30.036Z,69.13
2018-01-10T18:54:00.045Z,69.13
2018-01-10T18:54:30.032Z,69.13
2018-01-10T18:55:00.073Z,69.24
2018-01-10T18:55:30.026Z,69.34
2018-01-10T18:56:00.048Z,69.34
2018-01-10T18:56:30.028Z,69.34
2018-01-10T18:57:00.032Z,69.34
2018-01-10T18:57:30.022Z,69.44
2018-01-10T18:58:00.038Z,69.44
2018-01-10T18:58:30.020Z,69.44
2018-01-10T18:59:00.028Z,69.44
2018-01-10T18:59:30.009Z,69.54
2018-01-10T19:00:00.009Z,69.54
2018-01-10T19:00:30.004Z,69.65
2018-01-10T19:01:00.006Z,69.65
2018-01-10T19:01:29.998Z,69.65
2018-01-10T19:01:59.995Z,69.78
2018-01-10T19:02:29.996Z,69.68
2018-01-10T19:03:00.025Z,69.78
2018-01-10T19:03:29.985Z,69.78
2018-01-10T19:04:00.063Z,69.78